createdAt,value
2022-08-26T02:17:53.956Z,20.30
2022-08-26T02:21:07.385Z,20.30
2022-08-26T02:24:19.710Z,20.30
2022-08-26T02:27:32.843Z,20.20
2022-08-26T02:30:43.970Z,20.20
2022-08-26T02:34:09.245Z,20.20
2022-08-26T02:37:20.206Z,20.20
2022-08-26T02:40:35.469Z,20.10
2022-08-26T02:43:56.696Z,20.10
2022-08-26T02:47:08.760Z,20.10
2022-08-26T02:50:19.885Z,20.00
2022-08-26T02:53:31.688Z,20.00
2022-08-26T02:56:40.651Z,20.00
2022-08-26T02:59:49.404Z,19.90
2022-08-26T03:03:00.300Z,19.90
2022-08-26T07:05:42.690Z,19.90
2022-08-26T07:08:52.575Z,20.20
2022-08-26T07:12:06.803Z,20.40
2022-08-26T07:15:16.207Z,20.50
2022-08-26T07:18:24.487Z,20.80
2022-08-26T07:21:37.144Z,20.80
2022-08-26T07:24:46.077Z,20.90
2022-08-26T07:27:56.123Z,21.50
2022-08-26T07:31:06.307Z,21.90
2022-08-26T07:34:19.198Z,22.30
2022-08-26T07:37:29.061Z,24.50
2022-08-26T07:40:44.221Z,24.40
2022-08-26T07:43:53.819Z,24.40
2022-08-26T07:47:02.522Z,23.70
2022-08-26T07:50:10.955Z,23.80
2022-08-26T07:53:37.196Z,25.40
2022-08-26T07:56:46.234Z,27.10
2022-08-26T09:28:14.872Z,29.90
2022-08-26T09:31:27.499Z,29.90
2022-08-26T09:34:36.806Z,29.30
2022-08-26T09:41:06.081Z,28.90
2022-08-26T09:44:20.733Z,29.70
2022-08-26T09:47:38.247Z,30.40
2022-08-26T09:50:56.041Z,30.70
2022-08-26T09:54:05.730Z,29.90
2022-08-26T09:57:21.748Z,30.20
2022-08-26T10:00:34.812Z,28.20
2022-08-26T10:03:47.263Z,28.50
2022-08-26T10:06:59.460Z,28.20
2022-08-26T10:10:11.767Z,28.10
2022-08-26T10:13:33.258Z,28.50
2022-08-26T10:16:49.702Z,28.20
2022-08-26T10:20:05.582Z,27.50
2022-08-26T10:23:37.872Z,28.90
2022-08-26T10:26:58.854Z,29.10
2022-08-26T10:30:11.698Z,29.30
2022-08-26T10:33:21.649Z,29.60
2022-08-26T10:37:14.409Z,29.70
2022-08-26T10:40:28.488Z,29.70
2022-08-26T10:43:42.765Z,29.20
2022-08-26T10:47:00.303Z,29.70
2022-08-26T10:50:12.831Z,29.60
2022-08-26T10:53:32.960Z,29.10
2022-08-26T10:57:09.835Z,29.50
2022-08-26T11:00:40.418Z,29.50
2022-08-26T11:04:00.400Z,29.90
2022-08-26T11:07:37.062Z,29.60
2022-08-26T11:10:59.163Z,29.30
2022-08-26T11:14:12.036Z,28.50
2022-08-26T11:17:57.684Z,28.00
2022-08-26T11:21:47.654Z,27.90
2022-08-26T11:25:15.606Z,28.50
2022-08-26T11:28:36.675Z,28.80
2022-08-26T11:31:58.253Z,29.00
